sensor_id;sensor_type;location;lat;lon;timestamp;temperature;humidity
64599;SHT31;51008;51.504;11.548;2023-04-24T00:00:17;11.06;93.80
64599;SHT31;51008;51.504;11.548;2023-04-24T00:05:18;11.00;93.76
64599;SHT31;51008;51.504;11.548;2023-04-24T00:10:19;10.93;94.34
64599;SHT31;51008;51.504;11.548;2023-04-24T00:15:20;10.83;94.84
64599;SHT31;51008;51.504;11.548;2023-04-24T00:20:21;10.84;95.03
64599;SHT31;51008;51.504;11.548;2023-04-24T00:25:22;10.84;94.93
64599;SHT31;51008;51.504;11.548;2023-04-24T00:30:23;10.89;94.53
64599;SHT31;51008;51.504;11.548;2023-04-24T00:35:24;10.92;93.67
64599;SHT31;51008;51.504;11.548;2023-04-24T00:40:26;10.93;92.98
64599;SHT31;51008;51.504;11.548;2023-04-24T00:45:28;10.93;92.77
64599;SHT31;51008;51.504;11.548;2023-04-24T00:50:29;10.94;92.40
64599;SHT31;51008;51.504;11.548;2023-04-24T00:55:32;10.92;92.63
64599;SHT31;51008;51.504;11.548;2023-04-24T01:00:33;10.89;92.37
64599;SHT31;51008;51.504;11.548;2023-04-24T01:05:34;10.94;92.13
64599;SHT31;51008;51.504;11.548;2023-04-24T01:10:36;10.96;91.77
64599;SHT31;51008;51.504;11.548;2023-04-24T01:15:38;11.03;91.24
64599;SHT31;51008;51.504;11.548;2023-04-24T01:20:42;11.03;91.06
64599;SHT31;51008;51.504;11.548;2023-04-24T01:25:43;11.08;90.93
64599;SHT31;51008;51.504;11.548;2023-04-24T01:30:44;10.97;90.90
64599;SHT31;51008;51.504;11.548;2023-04-24T01:35:45;10.99;90.72
64599;SHT31;51008;51.504;11.548;2023-04-24T01:40:47;10.97;90.80
64599;SHT31;51008;51.504;11.548;2023-04-24T01:45:48;10.92;90.70
64599;SHT31;51008;51.504;11.548;2023-04-24T01:50:49;10.96;90.58
64599;SHT31;51008;51.504;11.548;2023-04-24T01:55:49;10.84;90.80
64599;SHT31;51008;51.504;11.548;2023-04-24T02:00:50;10.80;91.06
64599;SHT31;51008;51.504;11.548;2023-04-24T02:05:51;10.76;91.18
64599;SHT31;51008;51.504;11.548;2023-04-24T02:10:52;10.67;91.20
64599;SHT31;51008;51.504;11.548;2023-04-24T02:15:53;10.66;91.17
64599;SHT31;51008;51.504;11.548;2023-04-24T02:20:54;10.60;91.41
64599;SHT31;51008;51.504;11.548;2023-04-24T02:25:55;10.59;91.29
64599;SHT31;51008;51.504;11.548;2023-04-24T02:30:56;10.55;91.29
64599;SHT31;51008;51.504;11.548;2023-04-24T02:35:57;10.49;91.51
64599;SHT31;51008;51.504;11.548;2023-04-24T02:40:58;10.44;91.62
64599;SHT31;51008;51.504;11.548;2023-04-24T02:46:01;10.38;91.64
64599;SHT31;51008;51.504;11.548;2023-04-24T02:51:02;10.48;91.20
64599;SHT31;51008;51.504;11.548;2023-04-24T02:56:03;10.48;91.15
64599;SHT31;51008;51.504;11.548;2023-04-24T03:01:04;10.46;91.05
64599;SHT31;51008;51.504;11.548;2023-04-24T03:06:05;10.42;90.98
64599;SHT31;51008;51.504;11.548;2023-04-24T03:11:06;10.37;90.88
64599;SHT31;51008;51.504;11.548;2023-04-24T03:16:07;10.38;90.71
64599;SHT31;51008;51.504;11.548;2023-04-24T03:21:08;10.31;90.67
64599;SHT31;51008;51.504;11.548;2023-04-24T03:26:10;10.27;90.84
64599;SHT31;51008;51.504;11.548;2023-04-24T03:31:15;10.24;90.83
64599;SHT31;51008;51.504;11.548;2023-04-24T03:36:16;10.20;91.06
64599;SHT31;51008;51.504;11.548;2023-04-24T03:41:18;10.20;90.47
64599;SHT31;51008;51.504;11.548;2023-04-24T03:46:23;10.27;90.40
64599;SHT31;51008;51.504;11.548;2023-04-24T03:51:29;10.31;90.06
64599;SHT31;51008;51.504;11.548;2023-04-24T03:56:36;10.44;89.65
64599;SHT31;51008;51.504;11.548;2023-04-24T04:01:37;10.46;89.67
64599;SHT31;51008;51.504;11.548;2023-04-24T04:06:47;10.44;89.58
64599;SHT31;51008;51.504;11.548;2023-04-24T04:11:49;10.41;89.43
64599;SHT31;51008;51.504;11.548;2023-04-24T04:16:50;10.35;89.82
64599;SHT31;51008;51.504;11.548;2023-04-24T04:21:51;10.44;89.62
64599;SHT31;51008;51.504;11.548;2023-04-24T04:27:18;10.45;89.50
64599;SHT31;51008;51.504;11.548;2023-04-24T04:32:25;10.49;89.28
64599;SHT31;51008;51.504;11.548;2023-04-24T04:37:27;10.62;89.05
64599;SHT31;51008;51.504;11.548;2023-04-24T04:42:41;10.83;88.83
64599;SHT31;51008;51.504;11.548;2023-04-24T04:47:42;10.94;88.16
64599;SHT31;51008;51.504;11.548;2023-04-24T04:52:43;10.93;88.48
64599;SHT31;51008;51.504;11.548;2023-04-24T04:58:01;10.94;88.25
64599;SHT31;51008;51.504;11.548;2023-04-24T05:03:03;10.99;88.41
64599;SHT31;51008;51.504;11.548;2023-04-24T05:08:04;11.11;87.76
64599;SHT31;51008;51.504;11.548;2023-04-24T05:13:05;11.14;87.12
64599;SHT31;51008;51.504;11.548;2023-04-24T05:18:08;11.17;87.31
64599;SHT31;51008;51.504;11.548;2023-04-24T05:23:09;11.18;87.41
64599;SHT31;51008;51.504;11.548;2023-04-24T05:28:13;11.22;87.30
64599;SHT31;51008;51.504;11.548;2023-04-24T05:33:14;11.24;87.46
64599;SHT31;51008;51.504;11.548;2023-04-24T05:38:15;11.34;86.85
64599;SHT31;51008;51.504;11.548;2023-04-24T05:43:16;11.48;86.49
64599;SHT31;51008;51.504;11.548;2023-04-24T05:48:17;11.70;85.76
64599;SHT31;51008;51.504;11.548;2023-04-24T05:53:18;11.79;85.49
64599;SHT31;51008;51.504;11.548;2023-04-24T05:58:20;11.87;85.27
64599;SHT31;51008;51.504;11.548;2023-04-24T06:03:22;12.02;84.80
64599;SHT31;51008;51.504;11.548;2023-04-24T06:08:23;12.10;84.74
64599;SHT31;51008;51.504;11.548;2023-04-24T06:13:25;12.22;84.04
64599;SHT31;51008;51.504;11.548;2023-04-24T06:18:44;12.48;83.82
64599;SHT31;51008;51.504;11.548;2023-04-24T06:23:45;12.64;83.86
64599;SHT31;51008;51.504;11.548;2023-04-24T06:28:46;12.88;83.59
64599;SHT31;51008;51.504;11.548;2023-04-24T06:33:48;12.81;82.50
64599;SHT31;51008;51.504;11.548;2023-04-24T06:38:49;12.81;83.11
64599;SHT31;51008;51.504;11.548;2023-04-24T06:43:50;13.00;81.80
64599;SHT31;51008;51.504;11.548;2023-04-24T06:48:52;13.11;81.62
64599;SHT31;51008;51.504;11.548;2023-04-24T06:53:53;13.19;81.35
64599;SHT31;51008;51.504;11.548;2023-04-24T06:58:54;13.16;81.90
64599;SHT31;51008;51.504;11.548;2023-04-24T07:03:55;13.03;81.29
64599;SHT31;51008;51.504;11.548;2023-04-24T07:08:56;12.80;81.19
64599;SHT31;51008;51.504;11.548;2023-04-24T07:13:57;12.86;80.85
64599;SHT31;51008;51.504;11.548;2023-04-24T07:18:58;12.98;80.63
64599;SHT31;51008;51.504;11.548;2023-04-24T07:23:59;12.94;80.25
64599;SHT31;51008;51.504;11.548;2023-04-24T07:29:00;12.93;80.74
64599;SHT31;51008;51.504;11.548;2023-04-24T07:34:01;12.91;80.75
64599;SHT31;51008;51.504;11.548;2023-04-24T07:39:02;13.18;80.39
64599;SHT31;51008;51.504;11.548;2023-04-24T07:44:03;13.42;79.29
64599;SHT31;51008;51.504;11.548;2023-04-24T07:49:04;14.17;76.58
64599;SHT31;51008;51.504;11.548;2023-04-24T07:54:05;14.47;74.71
64599;SHT31;51008;51.504;11.548;2023-04-24T07:59:06;14.14;74.08
64599;SHT31;51008;51.504;11.548;2023-04-24T08:04:07;14.29;72.82
64599;SHT31;51008;51.504;11.548;2023-04-24T08:09:08;14.43;72.10
64599;SHT31;51008;51.504;11.548;2023-04-24T08:14:09;14.56;70.62
64599;SHT31;51008;51.504;11.548;2023-04-24T08:19:10;15.22;70.36
64599;SHT31;51008;51.504;11.548;2023-04-24T08:24:11;16.18;66.73
64599;SHT31;51008;51.504;11.548;2023-04-24T08:29:12;15.77;64.37
64599;SHT31;51008;51.504;11.548;2023-04-24T08:34:13;15.78;64.91
64599;SHT31;51008;51.504;11.548;2023-04-24T08:39:15;15.68;66.12
64599;SHT31;51008;51.504;11.548;2023-04-24T08:44:16;15.60;67.27
64599;SHT31;51008;51.504;11.548;2023-04-24T08:49:17;16.67;63.99
64599;SHT31;51008;51.504;11.548;2023-04-24T08:54:19;17.05;63.08
64599;SHT31;51008;51.504;11.548;2023-04-24T08:59:21;16.78;63.37
64599;SHT31;51008;51.504;11.548;2023-04-24T09:04:23;15.98;63.39
64599;SHT31;51008;51.504;11.548;2023-04-24T09:09:25;15.53;64.37
64599;SHT31;51008;51.504;11.548;2023-04-24T09:14:26;15.11;62.71
64599;SHT31;51008;51.504;11.548;2023-04-24T09:19:27;15.36;61.19
64599;SHT31;51008;51.504;11.548;2023-04-24T09:24:28;15.35;60.15
64599;SHT31;51008;51.504;11.548;2023-04-24T09:29:29;15.22;60.16
64599;SHT31;51008;51.504;11.548;2023-04-24T09:34:30;14.80;62.57
64599;SHT31;51008;51.504;11.548;2023-04-24T09:39:31;14.85;63.42
64599;SHT31;51008;51.504;11.548;2023-04-24T09:44:34;14.73;62.64
64599;SHT31;51008;51.504;11.548;2023-04-24T09:49:35;15.29;61.43
64599;SHT31;51008;51.504;11.548;2023-04-24T09:54:37;16.15;58.07
64599;SHT31;51008;51.504;11.548;2023-04-24T09:59:45;16.08;56.22
64599;SHT31;51008;51.504;11.548;2023-04-24T10:04:56;16.61;53.98
64599;SHT31;51008;51.504;11.548;2023-04-24T10:09:58;15.95;52.33
64599;SHT31;51008;51.504;11.548;2023-04-24T10:15:00;15.53;52.83
64599;SHT31;51008;51.504;11.548;2023-04-24T10:20:01;16.23;52.69
64599;SHT31;51008;51.504;11.548;2023-04-24T10:25:04;17.66;52.35
64599;SHT31;51008;51.504;11.548;2023-04-24T10:30:06;18.10;48.06
64599;SHT31;51008;51.504;11.548;2023-04-24T10:35:09;18.50;47.16
64599;SHT31;51008;51.504;11.548;2023-04-24T10:40:11;17.82;46.62
64599;SHT31;51008;51.504;11.548;2023-04-24T10:45:16;17.04;49.51
64599;SHT31;51008;51.504;11.548;2023-04-24T10:50:18;17.50;52.43
64599;SHT31;51008;51.504;11.548;2023-04-24T11:00:43;16.52;50.50
64599;SHT31;51008;51.504;11.548;2023-04-24T11:05:52;16.96;51.26
64599;SHT31;51008;51.504;11.548;2023-04-24T11:10:59;17.05;48.74
64599;SHT31;51008;51.504;11.548;2023-04-24T11:16:13;17.04;51.02
64599;SHT31;51008;51.504;11.548;2023-04-24T11:21:17;16.77;51.23
64599;SHT31;51008;51.504;11.548;2023-04-24T11:26:21;17.01;50.11
64599;SHT31;51008;51.504;11.548;2023-04-24T11:31:38;16.91;50.56
64599;SHT31;51008;51.504;11.548;2023-04-24T11:36:43;17.14;48.04
64599;SHT31;51008;51.504;11.548;2023-04-24T11:41:44;17.22;46.71
64599;SHT31;51008;51.504;11.548;2023-04-24T11:46:45;17.43;50.29
64599;SHT31;51008;51.504;11.548;2023-04-24T11:51:46;17.37;48.53
64599;SHT31;51008;51.504;11.548;2023-04-24T11:56:47;17.89;49.27
64599;SHT31;51008;51.504;11.548;2023-04-24T12:01:50;17.05;48.54
64599;SHT31;51008;51.504;11.548;2023-04-24T12:07:03;17.81;49.15
64599;SHT31;51008;51.504;11.548;2023-04-24T12:12:06;16.94;49.66
64599;SHT31;51008;51.504;11.548;2023-04-24T12:17:07;16.47;51.08
64599;SHT31;51008;51.504;11.548;2023-04-24T12:22:08;16.15;52.53
64599;SHT31;51008;51.504;11.548;2023-04-24T12:27:19;16.64;51.17
64599;SHT31;51008;51.504;11.548;2023-04-24T12:32:20;16.59;51.12
64599;SHT31;51008;51.504;11.548;2023-04-24T12:37:25;16.67;51.47
64599;SHT31;51008;51.504;11.548;2023-04-24T12:42:30;16.88;52.74
64599;SHT31;51008;51.504;11.548;2023-04-24T12:47:32;16.50;52.07
64599;SHT31;51008;51.504;11.548;2023-04-24T12:52:33;16.55;53.71
64599;SHT31;51008;51.504;11.548;2023-04-24T12:57:36;16.53;53.45
64599;SHT31;51008;51.504;11.548;2023-04-24T13:02:37;15.90;53.44
64599;SHT31;51008;51.504;11.548;2023-04-24T13:07:39;16.16;55.77
64599;SHT31;51008;51.504;11.548;2023-04-24T13:12:40;16.29;54.29
64599;SHT31;51008;51.504;11.548;2023-04-24T13:17:41;15.36;54.88
64599;SHT31;51008;51.504;11.548;2023-04-24T13:22:42;14.66;60.05
64599;SHT31;51008;51.504;11.548;2023-04-24T13:27:43;13.98;62.60
64599;SHT31;51008;51.504;11.548;2023-04-24T13:32:44;14.71;60.65
64599;SHT31;51008;51.504;11.548;2023-04-24T13:37:45;14.97;59.35
64599;SHT31;51008;51.504;11.548;2023-04-24T13:42:46;14.43;61.40
64599;SHT31;51008;51.504;11.548;2023-04-24T13:47:47;13.85;65.15
64599;SHT31;51008;51.504;11.548;2023-04-24T13:52:48;13.97;63.80
64599;SHT31;51008;51.504;11.548;2023-04-24T13:57:49;14.67;62.13
64599;SHT31;51008;51.504;11.548;2023-04-24T14:02:50;15.08;60.06
64599;SHT31;51008;51.504;11.548;2023-04-24T14:07:51;14.33;60.06
64599;SHT31;51008;51.504;11.548;2023-04-24T14:12:52;14.15;61.29
64599;SHT31;51008;51.504;11.548;2023-04-24T14:17:53;13.69;61.54
64599;SHT31;51008;51.504;11.548;2023-04-24T14:22:54;13.36;62.56
64599;SHT31;51008;51.504;11.548;2023-04-24T14:27:55;13.14;63.38
64599;SHT31;51008;51.504;11.548;2023-04-24T14:32:56;13.16;63.71
64599;SHT31;51008;51.504;11.548;2023-04-24T14:37:57;13.38;63.77
64599;SHT31;51008;51.504;11.548;2023-04-24T14:42:58;13.21;63.59
64599;SHT31;51008;51.504;11.548;2023-04-24T14:47:59;13.19;62.99
64599;SHT31;51008;51.504;11.548;2023-04-24T14:53:00;13.23;64.05
64599;SHT31;51008;51.504;11.548;2023-04-24T14:58:02;13.21;62.61
64599;SHT31;51008;51.504;11.548;2023-04-24T15:03:03;13.29;62.32
64599;SHT31;51008;51.504;11.548;2023-04-24T15:08:04;12.94;62.48
64599;SHT31;51008;51.504;11.548;2023-04-24T15:13:05;12.81;63.62
64599;SHT31;51008;51.504;11.548;2023-04-24T15:18:08;12.97;62.22
64599;SHT31;51008;51.504;11.548;2023-04-24T15:23:09;12.76;63.96
64599;SHT31;51008;51.504;11.548;2023-04-24T15:28:10;12.38;65.22
64599;SHT31;51008;51.504;11.548;2023-04-24T15:33:11;12.66;64.84
64599;SHT31;51008;51.504;11.548;2023-04-24T15:38:13;12.66;65.27
64599;SHT31;51008;51.504;11.548;2023-04-24T15:43:14;12.75;65.37
64599;SHT31;51008;51.504;11.548;2023-04-24T15:48:15;12.53;64.72
64599;SHT31;51008;51.504;11.548;2023-04-24T15:53:16;12.55;65.79
64599;SHT31;51008;51.504;11.548;2023-04-24T15:58:20;12.22;66.32
64599;SHT31;51008;51.504;11.548;2023-04-24T16:03:21;11.84;66.87
64599;SHT31;51008;51.504;11.548;2023-04-24T16:08:22;11.89;67.91
64599;SHT31;51008;51.504;11.548;2023-04-24T16:13:23;11.66;67.78
64599;SHT31;51008;51.504;11.548;2023-04-24T16:18:24;11.43;68.81
64599;SHT31;51008;51.504;11.548;2023-04-24T16:23:25;11.39;69.32
64599;SHT31;51008;51.504;11.548;2023-04-24T16:28:26;11.39;68.76
64599;SHT31;51008;51.504;11.548;2023-04-24T16:33:27;11.32;68.56
64599;SHT31;51008;51.504;11.548;2023-04-24T16:38:28;11.14;69.09
64599;SHT31;51008;51.504;11.548;2023-04-24T16:43:29;11.06;69.34
64599;SHT31;51008;51.504;11.548;2023-04-24T16:48:32;10.92;69.91
64599;SHT31;51008;51.504;11.548;2023-04-24T16:53:33;10.84;71.12
64599;SHT31;51008;51.504;11.548;2023-04-24T16:58:35;10.94;70.21
64599;SHT31;51008;51.504;11.548;2023-04-24T17:03:36;10.84;70.42
64599;SHT31;51008;51.504;11.548;2023-04-24T17:08:37;10.59;70.39
64599;SHT31;51008;51.504;11.548;2023-04-24T17:13:38;10.52;71.76
64599;SHT31;51008;51.504;11.548;2023-04-24T17:18:41;10.53;72.10
64599;SHT31;51008;51.504;11.548;2023-04-24T17:23:42;10.41;72.29
64599;SHT31;51008;51.504;11.548;2023-04-24T17:28:44;10.35;72.41
64599;SHT31;51008;51.504;11.548;2023-04-24T17:33:45;10.31;71.78
64599;SHT31;51008;51.504;11.548;2023-04-24T17:38:46;10.18;71.76
64599;SHT31;51008;51.504;11.548;2023-04-24T17:43:47;10.10;71.65
64599;SHT31;51008;51.504;11.548;2023-04-24T17:48:49;10.01;72.00
64599;SHT31;51008;51.504;11.548;2023-04-24T17:53:50;9.94;72.87
64599;SHT31;51008;51.504;11.548;2023-04-24T17:58:51;10.01;73.22
64599;SHT31;51008;51.504;11.548;2023-04-24T18:03:52;9.91;72.80
64599;SHT31;51008;51.504;11.548;2023-04-24T18:08:53;9.93;72.83
64599;SHT31;51008;51.504;11.548;2023-04-24T18:13:54;9.89;72.98
64599;SHT31;51008;51.504;11.548;2023-04-24T18:18:57;9.72;73.22
64599;SHT31;51008;51.504;11.548;2023-04-24T18:23:58;9.62;74.05
64599;SHT31;51008;51.504;11.548;2023-04-24T18:28:59;9.55;74.14
64599;SHT31;51008;51.504;11.548;2023-04-24T18:34:00;9.27;75.34
64599;SHT31;51008;51.504;11.548;2023-04-24T18:39:02;9.16;75.77
64599;SHT31;51008;51.504;11.548;2023-04-24T18:44:03;9.00;76.75
64599;SHT31;51008;51.504;11.548;2023-04-24T18:49:06;8.91;76.75
64599;SHT31;51008;51.504;11.548;2023-04-24T18:54:07;8.77;76.97
64599;SHT31;51008;51.504;11.548;2023-04-24T18:59:12;8.77;77.17
64599;SHT31;51008;51.504;11.548;2023-04-24T19:04:13;8.77;77.35
64599;SHT31;51008;51.504;11.548;2023-04-24T19:09:15;8.75;76.98
64599;SHT31;51008;51.504;11.548;2023-04-24T19:14:18;8.59;77.36
64599;SHT31;51008;51.504;11.548;2023-04-24T19:19:20;8.55;77.91
64599;SHT31;51008;51.504;11.548;2023-04-24T19:24:21;8.47;78.27
64599;SHT31;51008;51.504;11.548;2023-04-24T19:29:22;8.40;78.55
64599;SHT31;51008;51.504;11.548;2023-04-24T19:34:24;8.34;79.04
64599;SHT31;51008;51.504;11.548;2023-04-24T19:39:27;8.47;78.97
64599;SHT31;51008;51.504;11.548;2023-04-24T19:44:28;8.48;79.33
64599;SHT31;51008;51.504;11.548;2023-04-24T19:49:29;8.44;78.87
64599;SHT31;51008;51.504;11.548;2023-04-24T19:54:30;8.31;78.79
64599;SHT31;51008;51.504;11.548;2023-04-24T19:59:31;8.10;79.16
64599;SHT31;51008;51.504;11.548;2023-04-24T20:04:33;7.94;79.59
64599;SHT31;51008;51.504;11.548;2023-04-24T20:09:34;7.78;79.84
64599;SHT31;51008;51.504;11.548;2023-04-24T20:14:35;7.58;80.25
64599;SHT31;51008;51.504;11.548;2023-04-24T20:19:36;7.54;80.43
64599;SHT31;51008;51.504;11.548;2023-04-24T20:24:38;7.61;80.24
64599;SHT31;51008;51.504;11.548;2023-04-24T20:29:39;7.61;79.52
64599;SHT31;51008;51.504;11.548;2023-04-24T20:34:40;7.51;79.77
64599;SHT31;51008;51.504;11.548;2023-04-24T20:39:41;7.62;79.39
64599;SHT31;51008;51.504;11.548;2023-04-24T20:44:41;7.44;79.93
64599;SHT31;51008;51.504;11.548;2023-04-24T20:49:42;7.34;80.32
64599;SHT31;51008;51.504;11.548;2023-04-24T20:54:43;7.27;80.25
64599;SHT31;51008;51.504;11.548;2023-04-24T20:59:44;7.22;80.48
64599;SHT31;51008;51.504;11.548;2023-04-24T21:04:45;7.20;80.59
64599;SHT31;51008;51.504;11.548;2023-04-24T21:09:46;7.17;80.09
64599;SHT31;51008;51.504;11.548;2023-04-24T21:14:47;7.02;80.48
64599;SHT31;51008;51.504;11.548;2023-04-24T21:19:48;6.95;80.97
64599;SHT31;51008;51.504;11.548;2023-04-24T21:24:49;6.92;80.90
64599;SHT31;51008;51.504;11.548;2023-04-24T21:29:50;6.88;81.13
64599;SHT31;51008;51.504;11.548;2023-04-24T21:34:51;6.81;80.97
64599;SHT31;51008;51.504;11.548;2023-04-24T21:39:52;6.86;81.23
64599;SHT31;51008;51.504;11.548;2023-04-24T21:44:53;6.86;81.19
64599;SHT31;51008;51.504;11.548;2023-04-24T21:49:54;6.88;81.46
64599;SHT31;51008;51.504;11.548;2023-04-24T21:54:55;6.84;81.66
64599;SHT31;51008;51.504;11.548;2023-04-24T21:59:56;6.84;81.66
64599;SHT31;51008;51.504;11.548;2023-04-24T22:04:57;6.84;81.92
64599;SHT31;51008;51.504;11.548;2023-04-24T22:09:58;6.84;81.64
64599;SHT31;51008;51.504;11.548;2023-04-24T22:14:59;6.74;82.00
64599;SHT31;51008;51.504;11.548;2023-04-24T22:20:00;6.64;81.90
64599;SHT31;51008;51.504;11.548;2023-04-24T22:25:01;6.63;82.38
64599;SHT31;51008;51.504;11.548;2023-04-24T22:30:02;6.55;82.26
64599;SHT31;51008;51.504;11.548;2023-04-24T22:35:04;6.50;82.44
64599;SHT31;51008;51.504;11.548;2023-04-24T22:40:05;6.32;83.14
64599;SHT31;51008;51.504;11.548;2023-04-24T22:45:07;6.32;83.59
64599;SHT31;51008;51.504;11.548;2023-04-24T22:50:08;6.29;83.40
64599;SHT31;51008;51.504;11.548;2023-04-24T22:55:11;6.27;83.41
64599;SHT31;51008;51.504;11.548;2023-04-24T23:00:12;6.23;83.32
64599;SHT31;51008;51.504;11.548;2023-04-24T23:05:13;6.12;83.13
64599;SHT31;51008;51.504;11.548;2023-04-24T23:10:14;6.03;83.55
64599;SHT31;51008;51.504;11.548;2023-04-24T23:15:15;6.03;84.26
64599;SHT31;51008;51.504;11.548;2023-04-24T23:20:16;5.92;83.91
64599;SHT31;51008;51.504;11.548;2023-04-24T23:25:17;5.82;84.63
64599;SHT31;51008;51.504;11.548;2023-04-24T23:30:17;5.75;85.31
64599;SHT31;51008;51.504;11.548;2023-04-24T23:35:19;5.70;85.41
64599;SHT31;51008;51.504;11.548;2023-04-24T23:40:19;5.55;85.68
64599;SHT31;51008;51.504;11.548;2023-04-24T23:45:20;5.54;85.77
64599;SHT31;51008;51.504;11.548;2023-04-24T23:50:21;5.50;85.83
64599;SHT31;51008;51.504;11.548;2023-04-24T23:55:22;5.50;86.14
